Latest Coastal Weather Observations for Hogan Island

IDT60701

Issued at 7:12 am EDT Wednesday 18 October 2017 (issued every 10 minutes, with the page automatically refreshed every 10 minutes)

About coastal observations | Map of coastal stations | Coastal observations for TAS | Marine services | Other Formats
Station Details ID: 200838 Name: HOGAN ISLAND Lat: -39.22 Lon: 146.98 Height: 116.0 m
Data from the previous 72 hours. | See also: Recent months at Hogan Island
Date/Time
EDT
Temp
°C
Wind Pressure Rain since
9am
mm
Weather Cloud Vis
km
Sea
Height
m
Swell
Dir  Spd
kts
Gust
kts
hPa Trend Height
m
Period
s
Dir
18/07:00am 18.5 N 13 14 1021.8 - 0.2 - - - - - - -
18/06:30am 15.2 N 14 17 1021.6 - 0.2 - - - - - - -
18/06:00am 13.8 NNE 11 12 1021.1 - 0.2 - - - - - - -
18/05:30am 14.0 NE 14 16 1020.7 - 0.0 - - - - - - -
18/05:00am 14.0 NE 13 14 1020.8 - 0.0 - - - - - - -
18/04:30am 14.1 NE 14 18 1020.9 - 0.0 - - - - - - -
18/04:00am 14.3 ENE 14 18 1020.9 - 0.0 - - - - - - -
18/03:30am 14.3 ENE 13 15 1021.0 - 0.0 - - - - - - -
18/03:00am 14.3 E 12 16 1021.2 - 0.0 - - - - - - -
18/02:30am 14.7 E 10 13 1021.5 - 0.0 - - - - - - -
18/02:00am 14.6 E 11 12 1021.8 - 0.0 - - - - - - -
18/01:30am 14.2 E 10 11 1022.2 - 0.0 - - - - - - -
18/01:00am 16.6 ENE 11 12 1022.6 - 0.0 - - - - - - -
18/12:30am 15.7 NE 8 10 1022.9 - 0.0 - - - - - - -
18/12:00am 16.0 NE 8 11 1023.0 - 0.0 - - - - - - -
 
Date/Time
EDT
Temp
°C
Wind Pressure Rain since
9am
mm
Weather Cloud Vis
km
Sea
Height
m
Swell
Dir  Spd
kts
Gust
kts
hPa Trend Height
m
Period
s
Dir
17/11:30pm 15.7 NE 8 11 1023.2 - 0.0 - - - - - - -
17/11:00pm 15.4 NNE 10 11 1023.4 - 0.0 - - - - - - -
17/10:30pm 15.3 NE 12 13 1023.5 - 0.0 - - - - - - -
17/10:00pm 14.8 NE 13 14 1023.6 - 0.0 - - - - - - -
17/09:30pm 14.7 NE 13 15 1023.5 - 0.0 - - - - - - -
17/09:00pm 14.6 NE 13 15 1023.4 - 0.0 - - - - - - -
17/08:30pm 15.0 NE 12 16 1023.2 - 0.0 - - - - - - -
17/08:00pm 15.0 ENE 12 14 1022.8 - 0.0 - - - - - - -
17/07:30pm 15.5 ENE 11 14 1022.7 - 0.0 - - - - - - -
17/07:00pm 15.6 E 10 12 1022.6 - 0.0 - - - - - - -
17/06:30pm 16.5 E 9 11 1022.5 - 0.0 - - - - - - -
17/06:00pm 17.5 E 10 11 1022.4 - 0.0 - - - - - - -
17/05:30pm 18.5 E 9 10 1022.4 - 0.0 - - - - - - -
17/05:00pm 19.3 ENE 9 10 1022.5 - 0.0 - - - - - - -
17/04:30pm 19.9 ENE 8 9 1022.5 - 0.0 - - - - - - -
17/04:00pm 19.0 ENE 8 9 1022.6 - 0.0 - - - - - - -
17/03:30pm 19.1 ENE 9 9 1022.7 - 0.0 - - - - - - -
17/03:00pm 18.8 ENE 9 11 1022.9 - 0.0 - - - - - - -
17/02:30pm 19.0 ENE 8 11 1023.3 - 0.0 - - - - - - -
17/02:00pm 19.1 ENE 9 11 1023.4 - 0.0 - - - - - - -
17/01:30pm 18.6 ENE 9 12 1023.6 - 0.0 - - - - - - -
17/01:00pm 18.9 ENE 10 13 1023.7 - 0.0 - - - - - - -
17/12:30pm 17.8 ENE 11 14 1023.9 - 0.0 - - - - - - -
17/12:00pm 18.2 ENE 10 11 1024.0 - 0.0 - - - - - - -
17/11:30am 17.7 ENE 10 14 1023.9 - 0.0 - - - - - - -
17/11:00am 19.4 ENE 8 10 1024.1 - 0.0 - - - - - - -
17/10:30am 18.5 ENE 7 9 1024.2 - 0.0 - - - - - - -
17/10:00am 17.9 ENE 7 9 1024.5 - 0.0 - - - - - - -
17/09:30am 16.6 ENE 8 10 1024.3 - 0.0 - - - - - - -
17/09:00am 15.7 ENE 7 10 1024.1 - 0.2 - - - - - - -
17/08:30am 15.3 NE 7 9 1024.0 - 0.2 - - - - - - -
17/08:00am 14.6 NNE 7 9 1023.9 - 0.2 - - - - - - -
17/07:30am 14.6 NNE 9 11 1023.4 - 0.2 - - - - - - -
17/07:00am 13.4 NNE 10 12 1023.0 - 0.2 - - - - - - -
17/06:30am 12.9 NE 9 11 1022.8 - 0.0 - - - - - - -
17/06:00am 15.5 N 8 9 1022.6 - 0.0 - - - - - - -
17/05:30am 16.3 N 8 9 1022.4 - 0.0 - - - - - - -
17/05:00am 16.7 N 8 8 1022.4 - 0.0 - - - - - - -
17/04:30am 16.3 N 8 9 1022.4 - 0.0 - - - - - - -
17/04:00am 15.8 N 10 11 1022.5 - 0.0 - - - - - - -
17/03:30am 14.1 N 11 12 1022.5 - 0.0 - - - - - - -
17/03:00am 14.3 N 9 9 1022.6 - 0.0 - - - - - - -
17/02:30am 14.3 N 9 11 1023.0 - 0.0 - - - - - - -
17/02:00am 14.0 N 10 11 1023.4 - 0.0 - - - - - - -
17/01:30am 14.2 N 11 12 1023.9 - 0.0 - - - - - - -
17/01:00am 13.9 NNE 9 11 1024.2 - 0.0 - - - - - - -
17/12:30am 14.3 N 10 11 1024.5 - 0.0 - - - - - - -
17/12:00am 14.3 NNE 10 12 1024.6 - 0.0 - - - - - - -
 
Date/Time
EDT
Temp
°C
Wind Pressure Rain since
9am
mm
Weather Cloud Vis
km
Sea
Height
m
Swell
Dir  Spd
kts
Gust
kts
hPa Trend Height
m
Period
s
Dir
16/11:30pm 14.0 NNE 11 13 1024.5 - 0.0 - - - - - - -
16/11:00pm 14.1 NE 12 15 1024.5 - 0.0 - - - - - - -
16/10:30pm 14.0 NE 13 16 1024.5 - 0.0 - - - - - - -
16/10:00pm 14.0 NE 13 15 1024.6 - 0.0 - - - - - - -
16/09:30pm 13.8 ENE 12 14 1024.7 - 0.0 - - - - - - -
16/09:00pm 13.6 ENE 11 13 1024.8 - 0.0 - - - - - - -
16/08:30pm 13.3 ENE 10 12 1024.6 - 0.0 - - - - - - -
16/08:00pm 13.0 ENE 10 11 1024.6 - 0.0 - - - - - - -
16/07:30pm 13.1 E 10 12 1024.4 - 0.0 - - - - - - -
16/07:00pm 13.4 E 11 13 1024.1 - 0.0 - - - - - - -
16/06:30pm 13.7 E 11 13 1023.9 - 0.0 - - - - - - -
16/06:00pm 13.9 E 12 14 1023.9 - 0.0 - - - - - - -
16/05:30pm 14.1 E 13 14 1023.8 - 0.0 - - - - - - -
16/05:00pm 14.5 E 13 14 1024.0 - 0.0 - - - - - - -
16/04:30pm 14.7 E 13 14 1024.1 - 0.0 - - - - - - -
16/04:00pm 14.9 E 13 14 1024.4 - 0.0 - - - - - - -
16/03:30pm 15.2 ESE 13 15 1024.6 - 0.0 - - - - - - -
16/03:00pm 15.5 ESE 12 14 1025.0 - 0.0 - - - - - - -
16/02:30pm 15.2 E 9 11 1025.3 - 0.0 - - - - - - -
16/02:00pm 15.1 ESE 9 11 1025.4 - 0.0 - - - - - - -
16/01:30pm 15.0 E 9 11 1025.7 - 0.0 - - - - - - -
16/01:00pm 14.7 E 7 9 1025.7 - 0.0 - - - - - - -
16/12:30pm 14.3 E 9 12 1025.9 - 0.0 - - - - - - -
16/12:00pm 13.2 ENE 7 9 1026.4 - 0.0 - - - - - - -
16/11:30am 12.9 ENE 10 12 1026.5 - 0.0 - - - - - - -
16/11:00am 12.4 ENE 12 14 1026.7 - 0.0 - - - - - - -
16/10:30am 12.1 ENE 13 14 1026.7 - 0.0 - - - - - - -
16/10:00am 11.5 ENE 13 15 1026.8 - 0.0 - - - - - - -
16/09:30am 11.3 ENE 13 15 1026.6 - 0.0 - - - - - - -
16/09:00am 11.0 ENE 13 16 1026.5 - 0.0 - - - - - - -
16/08:30am 10.4 ENE 13 16 1026.4 - 0.0 - - - - - - -
16/08:00am 10.2 ENE 14 16 1026.3 - 0.0 - - - - - - -
16/07:30am 10.2 ENE 13 15 1026.1 - 0.0 - - - - - - -
16/07:00am 10.2 E 10 12 1026.1 - 0.0 - - - - - - -
16/06:30am 10.0 E 12 14 1025.6 - 0.0 - - - - - - -
16/06:00am 10.2 E 11 13 1025.5 - 0.0 - - - - - - -
16/05:30am 10.2 E 9 11 1025.2 - 0.0 - - - - - - -
16/05:00am 10.0 E 7 8 1025.1 - 0.0 - - - - - - -
16/04:30am 10.3 E 6 8 1025.2 - 0.0 - - - - - - -
16/04:00am 10.3 NE 7 9 1025.3 - 0.0 - - - - - - -
16/03:30am 10.6 NE 8 10 1025.2 - 0.0 - - - - - - -
16/03:00am 10.5 NE 7 9 1025.5 - 0.0 - - - - - - -
16/02:30am 10.4 NNE 6 8 1025.7 - 0.0 - - - - - - -
16/02:00am 10.3 N 8 10 1025.8 - 0.0 - - - - - - -
16/01:30am 10.4 N 7 9 1026.1 - 0.0 - - - - - - -
16/01:00am 10.3 NNE 5 7 1026.3 - 0.0 - - - - - - -
16/12:30am 10.0 N 5 6 1026.2 - 0.0 - - - - - - -
16/12:00am 10.2 ESE 3 4 1026.3 - 0.0 - - - - - - -
 
Date/Time
EDT
Temp
°C
Wind Pressure Rain since
9am
mm
Weather Cloud Vis
km
Sea
Height
m
Swell
Dir  Spd
kts
Gust
kts
hPa Trend Height
m
Period
s
Dir
15/11:30pm 10.1 SW 4 5 1026.0 - 0.0 - - - - - - -
15/11:00pm 10.2 SW 6 7 1025.9 - 0.0 - - - - - - -
15/10:30pm 10.3 SW 8 10 1026.0 - 0.0 - - - - - - -
15/10:00pm 10.6 SW 9 11 1025.8 - 0.0 - - - - - - -
15/09:30pm 10.7 W 10 11 1025.7 - 0.0 - - - - - - -
15/09:00pm 10.8 WSW 11 13 1025.6 - 0.0 - - - - - - -
15/08:30pm 10.8 WSW 13 16 1025.3 - 0.0 - - - - - - -
15/08:00pm 11.1 WSW 14 15 1025.0 - 0.0 - - - - - - -
15/07:30pm 11.2 WSW 14 16 1024.7 - 0.0 - - - - - - -
15/07:00pm 12.1 WSW 15 16 1024.5 - 0.0 - - - - - - -
15/06:30pm 12.8 WSW 15 17 1024.3 - 0.0 - - - - - - -
15/06:00pm 13.2 W 15 16 1024.2 - 0.0 - - - - - - -
15/05:30pm 14.1 W 15 16 1024.2 - 0.0 - - - - - - -
15/05:00pm 13.8 W 16 18 1024.1 - 0.0 - - - - - - -
15/04:30pm 14.9 W 16 17 1024.1 - 0.0 - - - - - - -
15/04:00pm 14.3 WSW 17 19 1024.1 - 0.0 - - - - - - -
15/03:30pm 14.6 WSW 16 18 1024.3 - 0.0 - - - - - - -
15/03:00pm 14.7 WSW 18 20 1024.5 - 0.0 - - - - - - -
15/02:30pm 15.1 WSW 18 22 1024.8 - 0.0 - - - - - - -
15/02:00pm 14.8 WSW 17 21 1025.0 - 0.0 - - - - - - -
15/01:30pm 15.2 WSW 17 20 1025.0 - 0.0 - - - - - - -
15/01:00pm 15.1 W 17 20 1025.1 - 0.0 - - - - - - -
15/12:30pm 15.3 WSW 17 20 1025.2 - 0.0 - - - - - - -
15/12:00pm 15.4 W 17 20 1025.4 - 0.0 - - - - - - -
15/11:30am 15.0 WSW 16 18 1025.5 - 0.0 - - - - - - -
15/11:00am 14.5 W 16 18 1025.6 - 0.0 - - - - - - -
15/10:30am 14.4 W 15 18 1025.5 - 0.0 - - - - - - -
15/10:00am 13.7 W 14 17 1025.5 - 0.0 - - - - - - -
15/09:30am 13.3 W 15 19 1025.4 - 0.0 - - - - - - -
15/09:00am 12.7 W 16 18 1025.3 - 0.0 - - - - - - -
15/08:30am 12.5 W 14 17 1025.0 - 0.0 - - - - - - -
15/08:00am 11.7 W 14 17 1024.9 - 0.0 - - - - - - -
15/07:30am 11.9 W 12 15 1024.7 - 0.0 - - - - - - -

Other Formats:

Comma delimited format used in spreadsheet applications
http://www.bom.gov.au/fwo/IDT60701/IDT60701.94949.axf

JavaScript Object Notation format (JSON) in row-major order
http://www.bom.gov.au/fwo/IDT60701/IDT60701.94949.json